Time;durP1;ratioP1;P1;durP2;ratioP2;P2;SDS_P1;SDS_P2;PMS_P1;PMS_P2;Temp;Humidity;BMP_temperature;BMP_pressure;BME280_temperature;BME280_humidity;BME280_pressure;Samples;Min_cycle;Max_cycle;Signal;HPM_P1;HPM_P2
2023/05/23 00:00:10;;;;;;;4.50;4.13;;;;;;;21.76;46.94;94941.16;6090544;28;110582;-74
2023/05/23 00:03:15;;;;;;;5.00;4.10;;;;;;;21.75;47.14;94936.13;6115392;28;109589;-74
2023/05/23 00:06:21;;;;;;;3.17;2.90;;;;;;;21.75;47.25;94938.81;6114746;28;110018;-74
2023/05/23 00:09:24;;;;;;;4.27;3.23;;;;;;;21.75;47.09;94934.25;6105932;28;111597;-75
2023/05/23 00:12:28;;;;;;;3.63;3.33;;;;;;;21.74;46.99;94927.38;6114898;28;110439;-75
2023/05/23 00:15:32;;;;;;;3.70;3.40;;;;;;;21.72;47.10;94929.56;6114987;28;109145;-73
2023/05/23 00:18:37;;;;;;;4.67;3.13;;;;;;;21.69;48.12;94932.03;6114374;28;108990;-74
2023/05/23 00:21:42;;;;;;;3.93;3.10;;;;;;;21.69;46.97;94934.72;6104300;28;109483;-74
2023/05/23 00:24:45;;;;;;;3.20;3.00;;;;;;;21.61;46.87;94917.56;6114096;28;109170;-74
2023/05/23 00:27:48;;;;;;;6.67;3.30;;;;;;;21.67;46.64;94932.31;6114778;28;109233;-74
2023/05/23 00:30:52;;;;;;;3.50;3.10;;;;;;;21.63;46.54;94918.06;6115224;28;109015;-74
2023/05/23 00:33:56;;;;;;;4.40;3.30;;;;;;;21.67;47.39;94920.88;6103971;28;112583;-72
2023/05/23 00:37:01;;;;;;;5.07;3.70;;;;;;;21.70;47.47;94920.31;6113542;28;109622;-72
2023/05/23 00:40:05;;;;;;;4.80;2.87;;;;;;;21.69;47.29;94919.50;6118610;28;109088;-73
2023/05/23 00:43:08;;;;;;;4.70;2.97;;;;;;;21.64;46.79;94906.31;6107554;28;109130;-73
2023/05/23 00:46:11;;;;;;;4.53;3.10;;;;;;;21.66;46.82;94916.66;6107802;28;109113;-73
2023/05/23 00:49:18;;;;;;;3.20;2.90;;;;;;;21.65;46.83;94913.22;6112676;28;109208;-72
2023/05/23 00:52:22;;;;;;;4.53;2.87;;;;;;;21.64;46.69;94914.28;6111619;28;109165;-72
2023/05/23 00:55:25;;;;;;;5.33;3.10;;;;;;;21.57;46.76;94902.53;6102843;28;109589;-71
2023/05/23 00:58:29;;;;;;;5.07;2.70;;;;;;;21.62;46.78;94915.69;6112367;28;109111;-73
2023/05/23 01:01:35;;;;;;;2.87;2.60;;;;;;;21.56;46.69;94907.06;6108744;28;109073;-72
2023/05/23 01:04:40;;;;;;;3.00;2.80;;;;;;;21.61;46.54;94922.91;6111619;28;110188;-74
2023/05/23 01:07:44;;;;;;;3.73;3.07;;;;;;;21.62;46.80;94929.00;6111843;28;109154;-73
2023/05/23 01:10:47;;;;;;;7.80;2.90;;;;;;;21.56;46.39;94915.06;6104731;28;109367;-74
2023/05/23 01:13:59;;;;;;;3.50;3.20;;;;;;;21.59;46.93;94926.97;6111452;28;110112;-72
2023/05/23 01:17:11;;;;;;;3.00;2.70;;;;;;;21.57;46.53;94926.50;6107531;28;108704;-73
2023/05/23 01:20:21;;;;;;;3.30;2.70;;;;;;;21.50;46.75;94902.94;6103537;28;110709;-73
2023/05/23 01:23:54;;;;;;;3.30;3.00;;;;;;;21.57;47.05;94915.84;6106868;28;109245;-73
2023/05/23 01:27:08;;;;;;;3.60;3.07;;;;;;;21.49;46.69;94907.47;6111134;28;109271;-73
2023/05/23 01:30:13;;;;;;;4.93;3.40;;;;;;;21.57;46.79;94926.50;6100840;28;110006;-74
2023/05/23 01:33:17;;;;;;;4.23;2.90;;;;;;;21.57;46.52;94927.28;6113020;28;109087;-73
2023/05/23 01:36:21;;;;;;;3.53;3.23;;;;;;;21.55;46.68;94920.69;6106556;28;109298;-73
2023/05/23 01:39:24;;;;;;;3.60;3.20;;;;;;;21.54;46.79;94917.25;6102499;28;109371;-74
2023/05/23 01:42:28;;;;;;;3.43;3.13;;;;;;;21.54;46.33;94919.91;6105023;28;109092;-75
2023/05/23 01:45:33;;;;;;;3.87;3.13;;;;;;;21.50;46.70;94914.38;6108989;28;109476;-74
2023/05/23 01:48:38;;;;;;;3.87;2.90;;;;;;;21.54;46.13;94911.13;6106326;28;109091;-73
2023/05/23 01:51:42;;;;;;;3.37;3.07;;;;;;;21.52;46.60;94909.56;6103968;28;109577;-73
2023/05/23 01:54:47;;;;;;;3.40;3.20;;;;;;;21.52;46.42;94914.09;6116870;28;112536;-73
2023/05/23 01:57:51;;;;;;;3.80;3.17;;;;;;;21.45;46.47;94914.50;6113994;28;110457;-73
2023/05/23 02:00:56;;;;;;;4.60;3.17;;;;;;;21.44;45.96;94901.50;6112800;28;109255;-73
2023/05/23 02:04:00;;;;;;;5.63;3.40;;;;;;;21.48;45.88;94908.56;6102513;28;109082;-72
2023/05/23 02:07:03;;;;;;;4.60;3.27;;;;;;;21.43;46.15;94908.72;6112035;28;109405;-72
2023/05/23 02:10:09;;;;;;;3.03;2.80;;;;;;;21.47;45.98;94916.88;6111934;28;109095;-73
2023/05/23 02:13:12;;;;;;;3.53;3.10;;;;;;;21.43;46.42;94919.34;6125018;28;109452;-72
2023/05/23 02:16:17;;;;;;;5.63;3.50;;;;;;;21.46;46.40;94926.72;6102709;28;109409;-72
2023/05/23 02:19:20;;;;;;;3.90;2.93;;;;;;;21.46;46.63;94918.75;6112358;28;109455;-70
2023/05/23 02:22:24;;;;;;;4.37;3.30;;;;;;;21.44;46.88;94902.28;6107927;28;109086;-73
2023/05/23 02:25:27;;;;;;;3.97;2.83;;;;;;;21.47;46.80;94920.31;6106848;28;111300;-72
2023/05/23 02:28:30;;;;;;;5.53;3.10;;;;;;;21.47;46.85;94914.22;6101097;28;109082;-74
2023/05/23 02:31:36;;;;;;;3.27;2.97;;;;;;;21.46;46.29;94916.09;6101161;28;109164;-74
2023/05/23 02:34:40;;;;;;;2.83;2.50;;;;;;;21.42;46.52;94909.81;6110736;28;109205;-73
2023/05/23 02:37:43;;;;;;;6.50;3.20;;;;;;;21.44;46.60;94906.84;6096416;28;109273;-73
2023/05/23 02:40:49;;;;;;;2.60;2.40;;;;;;;21.44;46.03;94909.50;6107085;28;109480;-74
2023/05/23 02:43:52;;;;;;;8.97;3.47;;;;;;;21.42;46.62;94912.47;6113633;28;109487;-70
2023/05/23 02:46:57;;;;;;;12.73;3.87;;;;;;;21.40;47.17;94914.66;6111740;28;109097;-74
2023/05/23 02:50:00;;;;;;;7.57;3.50;;;;;;;21.39;46.74;94904.31;6100927;28;109090;-73
2023/05/23 02:53:03;;;;;;;16.53;3.90;;;;;;;21.36;47.64;94897.72;6111419;28;108752;-74
2023/05/23 02:56:08;;;;;;;12.70;4.00;;;;;;;21.38;47.62;94906.19;6111237;28;109101;-73
2023/05/23 02:59:12;;;;;;;14.33;4.50;;;;;;;21.38;46.76;94900.06;6106849;28;109118;-74
2023/05/23 03:02:17;;;;;;;12.40;4.90;;;;;;;21.42;47.26;94906.34;6109314;28;109531;-73
2023/05/23 03:05:20;;;;;;;16.13;5.57;;;;;;;21.38;46.76;94898.19;6115656;28;109649;-73
2023/05/23 03:08:23;;;;;;;12.67;8.53;;;;;;;21.40;46.63;94896.00;6115281;28;109569;-72
2023/05/23 03:11:27;;;;;;;17.70;10.50;;;;;;;21.42;47.07;94899.16;6104725;28;109379;-73
2023/05/23 03:14:30;;;;;;;17.07;9.67;;;;;;;21.34;46.47;94894.56;6115852;28;111784;-74
2023/05/23 03:17:36;;;;;;;25.53;12.77;;;;;;;21.40;46.60;94893.34;6115263;28;109229;-74
2023/05/23 03:20:39;;;;;;;22.93;14.77;;;;;;;21.45;46.18;94898.53;6115754;28;109013;-73
2023/05/23 03:23:42;;;;;;;15.00;13.10;;;;;;;21.30;46.26;94885.59;6105272;28;110732;-74
2023/05/23 03:26:46;;;;;;;18.07;13.47;;;;;;;21.39;46.65;94904.31;6115536;28;109503;-73
2023/05/23 03:29:50;;;;;;;26.60;16.20;;;;;;;21.23;47.26;94897.78;6114801;28;109443;-73
2023/05/23 03:32:54;;;;;;;40.43;16.27;;;;;;;21.22;46.83;94907.63;6113881;28;109238;-73
2023/05/23 03:35:57;;;;;;;28.73;14.00;;;;;;;21.19;46.77;94900.28;6104568;28;109930;-74
2023/05/23 03:39:00;;;;;;;27.80;14.13;;;;;;;21.32;47.34;94923.34;6115171;28;109229;-72
2023/05/23 03:42:04;;;;;;;30.20;11.50;;;;;;;21.33;47.02;94927.56;6114858;28;108903;-72
2023/05/23 03:45:07;;;;;;;41.90;13.80;;;;;;;21.33;47.18;94932.91;6105438;28;109073;-74
2023/05/23 03:48:12;;;;;;;27.73;11.40;;;;;;;21.36;47.53;94931.53;6112197;28;109248;-74
2023/05/23 03:51:15;;;;;;;26.73;16.13;;;;;;;21.40;48.18;94927.97;6139505;28;108923;-74
2023/05/23 03:54:18;;;;;;;24.77;18.60;;;;;;;21.39;46.92;94920.28;6133227;28;109765;-72
2023/05/23 03:57:21;;;;;;;33.27;22.40;;;;;;;21.34;46.58;94923.03;6104041;28;108834;-70
2023/05/23 04:00:25;;;;;;;19.60;12.33;;;;;;;21.21;46.05;94930.03;6114006;28;109090;-63
2023/05/23 04:03:32;;;;;;;11.77;8.33;;;;;;;21.04;45.62;94927.19;6114482;28;109068;-66
2023/05/23 04:06:35;;;;;;;10.23;8.60;;;;;;;21.01;45.89;94933.91;6114479;28;109196;-65
2023/05/23 04:09:38;;;;;;;11.63;8.07;;;;;;;20.93;45.94;94931.97;6104979;28;110032;-65
2023/05/23 04:12:41;;;;;;;8.50;7.70;;;;;;;20.89;46.25;94934.44;6114051;28;109151;-67
2023/05/23 04:15:46;;;;;;;10.57;6.97;;;;;;;20.89;45.93;94937.09;6114376;28;109004;-64
2023/05/23 04:18:51;;;;;;;9.70;6.87;;;;;;;20.82;45.60;94926.06;6110247;28;109244;-64
2023/05/23 04:21:54;;;;;;;6.97;6.27;;;;;;;20.80;45.87;94932.78;6109832;28;108879;-65
2023/05/23 04:24:57;;;;;;;6.70;6.20;;;;;;;20.79;45.46;94933.88;6114573;28;110627;-65
2023/05/23 04:28:00;;;;;;;6.03;5.30;;;;;;;20.77;45.50;94938.69;6114351;28;109474;-66
2023/05/23 04:31:03;;;;;;;6.80;6.20;;;;;;;20.74;45.49;94939.31;6103382;28;109258;-64
2023/05/23 04:34:08;;;;;;;11.23;10.13;;;;;;;20.75;45.32;94939.00;6114540;28;110685;-65
2023/05/23 04:37:11;;;;;;;12.50;11.40;;;;;;;20.72;45.55;94938.81;6114002;28;108742;-65
2023/05/23 04:40:15;;;;;;;9.00;8.20;;;;;;;20.70;45.28;94941.78;6113943;28;109438;-66
2023/05/23 04:43:18;;;;;;;7.70;7.10;;;;;;;20.69;45.38;94942.88;6103917;28;110166;-65
2023/05/23 04:46:25;;;;;;;7.10;6.50;;;;;;;20.71;45.35;94939.91;6113980;28;109130;-66
2023/05/23 04:49:32;;;;;;;6.90;6.37;;;;;;;20.71;45.35;94937.25;6114251;28;108619;-66
2023/05/23 04:52:36;;;;;;;6.60;6.10;;;;;;;20.70;45.55;94946.31;6087952;28;109916;-64
2023/05/23 04:55:39;;;;;;;6.10;5.60;;;;;;;20.70;45.67;94947.09;6081484;28;109087;-66
2023/05/23 04:58:44;;;;;;;6.87;6.20;;;;;;;20.72;45.73;94944.13;6088747;28;109341;-66
2023/05/23 05:01:47;;;;;;;6.90;6.30;;;;;;;20.75;45.53;94954.16;6088872;28;109376;-66
2023/05/23 05:04:52;;;;;;;6.73;6.13;;;;;;;20.73;45.66;94956.34;6079206;28;109092;-66
2023/05/23 05:07:55;;;;;;;7.00;6.40;;;;;;;20.72;45.86;94955.56;6100113;28;112744;-66
2023/05/23 05:10:59;;;;;;;6.00;5.13;;;;;;;20.72;45.80;94954.78;6112544;28;109761;-77
2023/05/23 05:14:02;;;;;;;11.07;6.17;;;;;;;20.93;45.56;94962.00;6113070;28;110179;-70
2023/05/23 05:17:05;;;;;;;9.27;6.10;;;;;;;21.02;45.53;94964.75;6103211;28;110060;-69
2023/05/23 05:20:11;;;;;;;15.03;6.43;;;;;;;21.04;46.19;94962.56;6113054;28;108887;-69
2023/05/23 05:23:15;;;;;;;10.40;5.57;;;;;;;20.92;46.65;94965.75;6111571;28;109220;-61
2023/05/23 05:26:18;;;;;;;9.00;5.27;;;;;;;20.93;45.87;94961.22;6112391;28;109221;-61
2023/05/23 05:29:21;;;;;;;6.70;5.30;;;;;;;20.80;46.13;94962.81;6101268;28;110071;-63
2023/05/23 05:32:24;;;;;;;6.67;6.10;;;;;;;20.79;46.01;94969.22;6093048;28;110471;-61
2023/05/23 05:35:29;;;;;;;9.30;8.40;;;;;;;20.72;46.09;94963.53;6087590;28;109482;-63
2023/05/23 05:38:32;;;;;;;13.73;12.53;;;;;;;20.74;45.95;94965.91;6098569;28;109127;-61
2023/05/23 05:41:35;;;;;;;10.10;9.10;;;;;;;20.75;45.78;94970.13;6107127;28;109370;-61
2023/05/23 05:44:38;;;;;;;7.57;6.90;;;;;;;20.76;45.29;94972.47;6111784;28;109249;-61
2023/05/23 05:47:42;;;;;;;7.93;7.33;;;;;;;20.82;45.93;94965.97;6112008;28;109054;-62
2023/05/23 05:50:46;;;;;;;7.30;6.60;;;;;;;20.83;45.73;94958.78;6101581;28;109242;-61
2023/05/23 05:53:50;;;;;;;6.10;5.60;;;;;;;20.87;45.43;94971.19;6111648;28;109313;-61
2023/05/23 05:56:54;;;;;;;6.40;5.80;;;;;;;20.89;45.42;94966.34;6112113;28;112006;-61
2023/05/23 05:59:58;;;;;;;6.77;5.70;;;;;;;20.94;45.44;94968.09;6111993;28;109955;-61
2023/05/23 06:03:01;;;;;;;6.23;5.63;;;;;;;20.98;45.32;94962.97;6101536;28;109260;-62
2023/05/23 06:06:07;;;;;;;7.33;5.70;;;;;;;21.01;45.79;94960.53;6112312;28;111491;-62
2023/05/23 06:09:11;;;;;;;7.67;5.80;;;;;;;21.03;45.68;94954.91;6111296;28;109118;-62
2023/05/23 06:12:16;;;;;;;7.80;7.10;;;;;;;21.11;45.52;94968.28;6106676;28;110585;-62
2023/05/23 06:15:19;;;;;;;7.73;7.00;;;;;;;21.13;45.39;94966.09;6104560;28;109232;-61
2023/05/23 06:18:22;;;;;;;6.27;5.67;;;;;;;21.19;45.38;94974.78;6111099;28;109160;-62
2023/05/23 06:21:27;;;;;;;6.53;5.93;;;;;;;21.24;45.31;94969.34;6111091;28;109081;-62
2023/05/23 06:24:30;;;;;;;5.93;5.27;;;;;;;21.30;45.29;94960.13;6100945;28;109105;-61
2023/05/23 06:27:33;;;;;;;4.80;4.40;;;;;;;21.37;45.31;94970.38;6111043;28;110098;-61
2023/05/23 06:30:37;;;;;;;4.37;4.07;;;;;;;21.38;45.63;94970.06;6111119;28;111559;-61
2023/05/23 06:33:41;;;;;;;5.03;4.63;;;;;;;21.46;45.29;94969.31;6110890;28;109258;-61
2023/05/23 06:36:47;;;;;;;4.80;4.40;;;;;;;21.52;45.48;94960.16;6099407;28;109184;-61
2023/05/23 06:39:50;;;;;;;4.93;4.53;;;;;;;21.56;45.64;94957.66;6111209;28;109338;-61
2023/05/23 06:42:53;;;;;;;5.50;5.00;;;;;;;21.62;45.61;94974.28;6111137;28;110338;-62
2023/05/23 06:45:59;;;;;;;6.60;5.97;;;;;;;21.66;45.55;94961.94;6102094;28;109098;-61
2023/05/23 06:49:02;;;;;;;7.67;6.97;;;;;;;21.69;45.93;94970.13;6076323;28;109333;-67
2023/05/23 06:52:18;;;;;;;24.93;11.40;;;;;;;21.75;45.81;94968.09;6087089;28;109250;-70
2023/05/23 06:55:21;;;;;;;8.30;6.93;;;;;;;21.75;47.40;94960.91;6086570;28;109093;-69
2023/05/23 06:58:25;;;;;;;8.10;7.27;;;;;;;21.78;47.19;94964.81;6076512;28;109051;-70
2023/05/23 07:01:28;;;;;;;9.67;7.20;;;;;;;21.82;48.36;94960.47;6086565;28;110995;-69
2023/05/23 07:04:32;;;;;;;9.03;7.30;;;;;;;21.79;47.82;94955.75;6086723;28;111121;-68
2023/05/23 07:07:36;;;;;;;12.90;7.77;;;;;;;21.82;47.29;94944.50;6086885;28;109474;-69
2023/05/23 07:10:40;;;;;;;16.13;8.03;;;;;;;21.84;47.90;94949.50;6076143;28;108888;-68
2023/05/23 07:13:45;;;;;;;11.60;6.50;;;;;;;21.86;48.23;94952.69;6086589;28;109008;-68
2023/05/23 07:16:48;;;;;;;12.27;7.93;;;;;;;21.86;48.01;94950.81;6085992;28;109091;-68
2023/05/23 07:19:51;;;;;;;10.60;7.17;;;;;;;21.93;47.52;94945.81;6086622;28;111887;-68
2023/05/23 08:15:37;;;;;;;6.63;4.50;;;;;;;22.51;47.30;94907.41;6071513;28;109313;-64
2023/05/23 08:18:41;;;;;;;5.20;4.70;;;;;;;22.51;47.36;94910.09;6088601;28;109114;-66
2023/05/23 08:21:44;;;;;;;4.70;4.30;;;;;;;22.55;47.45;94913.72;6088953;28;109318;-65
2023/05/23 08:24:48;;;;;;;10.60;5.77;;;;;;;22.60;47.41;94902.13;6089524;28;109108;-65
2023/05/23 08:27:51;;;;;;;11.10;5.60;;;;;;;22.62;47.56;94913.28;6078747;28;109107;-66
2023/05/23 08:30:57;;;;;;;12.07;6.63;;;;;;;22.62;47.18;94905.28;6088778;28;109337;-65
2023/05/23 08:34:00;;;;;;;14.13;5.70;;;;;;;22.70;47.16;94913.31;6092824;28;109521;-65
2023/05/23 08:37:03;;;;;;;15.97;5.57;;;;;;;22.73;47.50;94903.09;6086080;28;109139;-68
2023/05/23 08:40:13;;;;;;;18.00;6.30;;;;;;;22.72;47.40;94902.31;6109056;28;109950;-66
2023/05/23 08:43:17;;;;;;;17.13;6.33;;;;;;;22.75;47.28;94906.22;6113317;28;109090;-62
2023/05/23 08:46:22;;;;;;;13.57;5.60;;;;;;;22.70;47.33;94907.19;6112922;28;109096;-61
2023/05/23 08:49:26;;;;;;;18.50;6.03;;;;;;;22.69;47.91;94903.72;6102019;28;109427;-60
2023/05/23 08:52:32;;;;;;;10.70;5.70;;;;;;;22.66;47.80;94903.53;6113042;28;109181;-61
2023/05/23 08:55:38;;;;;;;12.93;5.50;;;;;;;22.69;47.34;94903.72;6113064;28;109627;-61
2023/05/23 08:58:42;;;;;;;88.33;17.10;;;;;;;22.74;47.45;94896.66;6112145;28;109463;-62
2023/05/23 09:01:48;;;;;;;53.00;12.17;;;;;;;22.78;47.19;94894.94;6102733;28;109104;-62
2023/05/23 09:04:52;;;;;;;50.63;14.07;;;;;;;22.77;47.50;94885.38;6112470;28;109176;-62
2023/05/23 09:07:55;;;;;;;57.40;13.63;;;;;;;22.75;47.83;94885.69;6112586;28;109433;-62
2023/05/23 09:11:01;;;;;;;49.43;11.77;;;;;;;22.73;47.92;94881.75;6089679;28;109083;-64
2023/05/23 09:14:06;;;;;;;62.37;15.30;;;;;;;22.77;47.79;94880.03;6081091;28;110079;-63
2023/05/23 09:17:15;;;;;;;56.00;13.60;;;;;;;22.76;47.60;94886.47;6088844;28;109317;-61
2023/05/23 09:20:18;;;;;;;44.97;13.27;;;;;;;22.77;47.46;94880.03;6088504;28;110022;-61
2023/05/23 09:23:22;;;;;;;43.60;12.50;;;;;;;22.81;47.42;94878.28;6096378;28;109361;-62
2023/05/23 09:26:26;;;;;;;34.97;12.93;;;;;;;22.82;47.15;94880.66;6112333;28;109326;-61
2023/05/23 09:29:30;;;;;;;32.33;12.37;;;;;;;22.83;47.20;94878.75;6112756;28;110111;-60
2023/05/23 09:32:35;;;;;;;41.33;13.50;;;;;;;22.86;46.67;94875.50;6111996;28;109411;-62
2023/05/23 09:35:45;;;;;;;27.03;12.43;;;;;;;22.85;46.72;94879.22;6100354;28;109090;-60
2023/05/23 09:38:48;;;;;;;27.90;10.43;;;;;;;22.83;46.65;94878.75;6111632;28;108709;-61
2023/05/23 09:41:51;;;;;;;35.40;12.80;;;;;;;22.83;46.09;94876.09;6111862;28;109082;-61
2023/05/23 09:44:54;;;;;;;40.80;11.00;;;;;;;22.78;46.18;94871.72;6118421;28;109167;-61
2023/05/23 09:48:00;;;;;;;31.87;11.43;;;;;;;22.79;45.75;94869.81;6098476;28;110227;-61
2023/05/23 09:51:10;;;;;;;26.93;9.33;;;;;;;22.81;45.66;94867.63;6136059;28;110098;-62
2023/05/23 09:54:13;;;;;;;18.30;8.10;;;;;;;22.74;45.34;94876.09;6135755;28;108898;-61
2023/05/23 09:57:16;;;;;;;20.30;7.60;;;;;;;22.74;44.45;94856.66;6099265;28;109107;-62
2023/05/23 10:00:20;;;;;;;13.97;7.23;;;;;;;22.77;44.69;94861.34;6087413;28;109121;-62
2023/05/23 10:03:31;;;;;;;17.90;8.53;;;;;;;22.78;44.68;94855.69;6092947;28;109154;-62
2023/05/23 10:06:41;;;;;;;17.10;8.70;;;;;;;22.76;45.12;94849.91;6103676;28;109502;-62
2023/05/23 10:09:50;;;;;;;15.37;8.27;;;;;;;22.70;44.51;94843.94;6099965;28;109103;-62
2023/05/23 10:12:58;;;;;;;13.37;8.37;;;;;;;22.69;44.03;94847.72;6111381;28;109115;-61
2023/05/23 10:16:10;;;;;;;21.20;11.43;;;;;;;22.70;44.73;94843.94;6111490;28;109092;-61
2023/05/23 10:19:22;;;;;;;20.63;9.37;;;;;;;22.72;44.36;94848.97;6108869;28;109098;-63
2023/05/23 10:22:26;;;;;;;17.47;9.90;;;;;;;22.70;44.57;94845.84;6106115;28;109161;-62
2023/05/23 10:25:29;;;;;;;15.47;9.00;;;;;;;22.69;44.44;94844.25;6110925;28;109418;-62
2023/05/23 10:28:32;;;;;;;22.13;9.80;;;;;;;22.67;44.66;94836.53;6111078;28;109138;-61
2023/05/23 10:31:36;;;;;;;47.60;14.37;;;;;;;22.67;44.44;94841.88;6101833;28;110147;-68
2023/05/23 10:34:50;;;;;;;55.23;14.10;;;;;;;22.61;44.14;94829.03;6110583;28;109095;-61
2023/05/23 10:38:02;;;;;;;37.47;14.10;;;;;;;22.56;43.98;94839.81;6110957;28;109439;-61
2023/05/23 10:41:12;;;;;;;27.37;11.20;;;;;;;22.54;42.77;94821.47;6110854;28;109543;-61
2023/05/23 10:44:23;;;;;;;31.27;12.30;;;;;;;22.59;42.78;94824.00;6101139;28;109392;-63
2023/05/23 10:47:27;;;;;;;30.77;12.97;;;;;;;22.56;42.93;94827.28;6110734;28;108819;-62
2023/05/23 10:50:34;;;;;;;40.03;13.07;;;;;;;22.51;42.76;94816.75;6110455;28;109171;-62
2023/05/23 10:53:38;;;;;;;26.87;12.00;;;;;;;22.53;42.42;94817.25;6105930;28;109641;-62
2023/05/23 10:56:42;;;;;;;25.33;11.60;;;;;;;22.54;42.39;94816.16;6119348;28;110274;-62
2023/05/23 10:59:46;;;;;;;27.67;12.37;;;;;;;22.50;42.55;94809.84;6105625;28;108957;-61
2023/05/23 11:03:00;;;;;;;31.00;12.90;;;;;;;22.51;42.84;94813.28;6086557;28;109123;-61
2023/05/23 11:06:06;;;;;;;28.27;11.67;;;;;;;22.49;42.86;94813.63;6077128;28;110104;-68
2023/05/23 11:09:12;;;;;;;32.93;12.37;;;;;;;22.49;42.25;94813.63;6092682;28;109235;-69
2023/05/23 11:12:15;;;;;;;33.03;11.60;;;;;;;22.47;42.14;94804.38;6086295;28;109432;-69
2023/05/23 11:15:21;;;;;;;28.50;12.03;;;;;;;22.48;41.84;94808.59;6086477;28;109416;-68
2023/05/23 11:18:27;;;;;;;31.07;11.00;;;;;;;22.45;42.33;94804.69;6076648;28;110339;-69
2023/05/23 11:21:32;;;;;;;26.53;10.33;;;;;;;22.43;41.83;94790.88;6086627;28;109232;-68
2023/05/23 11:24:50;;;;;;;32.43;12.37;;;;;;;22.44;42.63;94795.13;6090444;28;109218;-67
2023/05/23 11:27:54;;;;;;;41.50;14.87;;;;;;;22.46;42.71;94792.13;6085108;28;109232;-67
2023/05/23 11:30:57;;;;;;;47.50;16.37;;;;;;;22.43;43.11;94798.88;6084797;28;108950;-67
2023/05/23 11:34:01;;;;;;;41.20;16.77;;;;;;;22.41;42.88;94791.19;6090175;28;109056;-68
2023/05/23 11:37:06;;;;;;;52.00;24.80;;;;;;;22.41;42.43;94788.53;6090898;28;109238;-68
2023/05/23 11:40:29;;;;;;;58.87;37.43;;;;;;;22.41;43.20;94785.09;6103425;28;109058;-68
2023/05/23 11:43:32;;;;;;;55.67;41.33;;;;;;;22.41;43.03;94779.75;6134763;28;108954;-68
2023/05/23 11:46:36;;;;;;;64.20;40.53;;;;;;;22.41;42.91;94779.75;6138284;28;110181;-66
2023/05/23 11:49:40;;;;;;;57.83;40.57;;;;;;;22.41;43.27;94769.09;6129780;28;109244;-64
2023/05/23 11:52:50;;;;;;;66.63;36.47;;;;;;;22.42;43.11;94776.75;6097774;28;108809;-66
2023/05/23 11:55:57;;;;;;;116.87;78.53;;;;;;;22.35;43.45;94778.34;6100105;28;109165;-66
2023/05/23 11:59:00;;;;;;;59.13;45.30;;;;;;;22.34;42.98;94774.09;6090098;28;110319;-66
2023/05/23 12:02:06;;;;;;;102.03;71.63;;;;;;;22.36;43.15;94772.69;6108375;28;110003;-67
2023/05/23 12:05:10;;;;;;;87.53;64.10;;;;;;;22.40;43.19;94762.97;6110370;28;109215;-67
2023/05/23 12:08:14;;;;;;;84.43;65.47;;;;;;;22.44;43.57;94757.78;6107511;28;109398;-65
2023/05/23 12:11:18;;;;;;;82.50;57.73;;;;;;;22.47;43.55;94757.16;6096624;28;109121;-66
2023/05/23 12:14:23;;;;;;;106.20;61.00;;;;;;;22.48;43.26;94758.72;6077963;28;109082;-66
2023/05/23 12:17:28;;;;;;;108.30;57.90;;;;;;;22.48;43.67;94752.59;6111939;28;109220;-60
2023/05/23 12:20:33;;;;;;;97.50;55.50;;;;;;;22.47;43.23;94746.47;6095685;28;109161;-60
2023/05/23 12:23:39;;;;;;;91.17;50.87;;;;;;;22.50;43.25;94751.19;6089261;28;109126;-60
2023/05/23 12:26:50;;;;;;;88.73;49.80;;;;;;;22.49;43.03;94746.94;6079232;28;109955;-60
2023/05/23 12:30:05;;;;;;;100.73;48.43;;;;;;;22.51;43.76;94741.31;6089267;28;108870;-60
2023/05/23 12:33:08;;;;;;;114.67;46.27;;;;;;;22.51;43.87;94730.63;6089015;28;109742;-62
2023/05/23 12:36:12;;;;;;;113.87;44.37;;;;;;;22.49;43.32;94725.63;6082494;28;109663;-61
2023/05/23 12:39:24;;;;;;;146.97;45.23;;;;;;;22.51;43.83;94736.75;6086983;28;110130;-59
2023/05/23 12:42:27;;;;;;;127.47;46.70;;;;;;;22.51;43.86;94726.09;6089125;28;109096;-60
2023/05/23 12:45:35;;;;;;;128.23;41.67;;;;;;;22.49;43.34;94722.94;6088530;28;109171;-60
2023/05/23 12:48:39;;;;;;;163.10;42.27;;;;;;;22.52;43.29;94721.56;6077608;28;109469;-60
2023/05/23 12:51:42;;;;;;;207.47;46.40;;;;;;;22.54;43.38;94722.81;6088536;28;109793;-59
2023/05/23 12:54:47;;;;;;;205.27;46.23;;;;;;;22.53;43.58;94715.91;6088713;28;109089;-61
2023/05/23 12:57:50;;;;;;;178.10;42.47;;;;;;;22.52;43.62;94711.69;6088604;28;109797;-60
2023/05/23 13:00:53;;;;;;;131.07;36.37;;;;;;;22.49;42.97;94696.28;6079782;28;109239;-60
2023/05/23 13:03:56;;;;;;;118.97;33.13;;;;;;;22.53;43.21;94704.47;6118778;28;109104;-60
2023/05/23 13:07:00;;;;;;;119.77;31.63;;;;;;;22.51;42.72;94704.75;6125393;28;109177;-60
2023/05/23 13:10:05;;;;;;;106.77;32.50;;;;;;;22.50;42.94;94705.84;6084339;28;111510;-61
2023/05/23 13:13:08;;;;;;;110.10;30.67;;;;;;;22.49;43.33;94695.50;6083082;28;109104;-61
2023/05/23 13:16:11;;;;;;;175.23;41.30;;;;;;;22.50;42.86;94695.19;6087674;28;108977;-60
2023/05/23 13:19:15;;;;;;;168.50;50.03;;;;;;;22.50;43.14;94697.84;6088141;28;108905;-60
2023/05/23 13:22:18;;;;;;;182.17;59.40;;;;;;;22.50;42.78;94691.75;6078787;28;109585;-60
2023/05/23 13:25:23;;;;;;;180.77;66.53;;;;;;;22.50;42.98;94687.19;6088212;28;109137;-66
2023/05/23 13:28:26;;;;;;;180.23;61.80;;;;;;;22.51;42.98;94691.41;6088291;28;109132;-66
2023/05/23 13:31:29;;;;;;;154.40;57.20;;;;;;;22.52;43.08;94695.69;6087858;28;108788;-66
2023/05/23 13:34:36;;;;;;;131.53;57.80;;;;;;;22.54;42.94;94692.69;6082526;28;111133;-66
2023/05/23 13:37:39;;;;;;;145.87;54.57;;;;;;;22.54;43.09;94690.81;6093527;28;109339;-67
2023/05/23 13:40:44;;;;;;;125.47;50.30;;;;;;;22.53;43.15;94691.13;6112031;28;109099;-66
2023/05/23 13:43:47;;;;;;;312.97;62.47;;;;;;;22.54;43.46;94696.13;6109067;28;108800;-64
2023/05/23 13:46:50;;;;;;;278.37;59.97;;;;;;;22.55;43.61;94700.38;6104836;28;110543;-67
2023/05/23 13:49:53;;;;;;;221.63;54.13;;;;;;;22.52;43.07;94694.91;6111759;28;108951;-66
2023/05/23 13:52:56;;;;;;;190.70;51.70;;;;;;;22.53;43.40;94696.47;6111785;28;109181;-66
2023/05/23 13:56:02;;;;;;;224.33;56.77;;;;;;;22.55;42.89;94694.25;6101272;28;109101;-67
2023/05/23 13:59:05;;;;;;;280.37;60.77;;;;;;;22.53;43.06;94697.25;6111278;28;110228;-67
2023/05/23 14:02:08;;;;;;;292.03;62.27;;;;;;;22.54;43.26;94692.69;6111909;28;109579;-67
2023/05/23 14:05:11;;;;;;;308.57;63.10;;;;;;;22.56;43.15;94696.59;6111505;28;109471;-67
2023/05/23 14:08:15;;;;;;;206.03;49.23;;;;;;;22.47;41.36;94693.16;6106562;28;109691;-65
2023/05/23 14:11:19;;;;;;;218.43;44.87;;;;;;;22.52;41.36;94687.69;6106285;28;111625;-66
2023/05/23 14:14:23;;;;;;;196.70;42.60;;;;;;;22.55;41.76;94699.59;6097222;28;109206;-67
2023/05/23 14:17:26;;;;;;;198.17;44.20;;;;;;;22.56;41.79;94696.59;6096149;28;112111;-68
2023/05/23 14:20:30;;;;;;;181.90;39.13;;;;;;;22.53;42.21;94691.91;6076399;28;108961;-68
2023/05/23 14:23:33;;;;;;;216.50;41.10;;;;;;;22.53;42.17;94697.25;6087189;28;109801;-68
2023/05/23 14:26:38;;;;;;;188.93;38.70;;;;;;;22.53;41.88;94691.91;6105810;28;109122;-67
2023/05/23 14:29:45;;;;;;;163.33;36.70;;;;;;;22.55;42.45;94692.38;6122130;28;109091;-67
2023/05/23 14:32:48;;;;;;;315.97;45.17;;;;;;;22.55;42.31;94686.25;6105296;28;109474;-68
2023/05/23 14:35:52;;;;;;;388.50;50.20;;;;;;;22.56;42.46;94691.28;6100919;28;109141;-62
2023/05/23 14:38:55;;;;;;;348.17;48.40;;;;;;;22.56;42.13;94682.50;6106597;28;109147;-63
2023/05/23 14:42:00;;;;;;;335.10;44.93;;;;;;;22.56;42.58;94685.94;6100220;28;109746;-63
2023/05/23 14:45:05;;;;;;;355.30;46.63;;;;;;;22.55;42.81;94681.72;6111223;28;110194;-64
2023/05/23 14:48:09;;;;;;;417.30;56.40;;;;;;;22.56;42.64;94691.28;6110523;28;109116;-64
2023/05/23 14:51:12;;;;;;;388.03;64.10;;;;;;;22.60;42.15;94691.44;6117193;28;109315;-63
2023/05/23 14:54:29;;;;;;;371.60;63.03;;;;;;;22.56;42.30;94688.59;6120288;28;109126;-63
2023/05/23 14:57:33;;;;;;;380.30;57.77;;;;;;;22.54;42.58;94676.69;6112307;28;109056;-63